Time;durP1;ratioP1;P1;durP2;ratioP2;P2;SDS_P1;SDS_P2;PMS_P1;PMS_P2;Temp;Humidity;BMP_temperature;BMP_pressure;BME280_temperature;BME280_humidity;BME280_pressure;Samples;Min_cycle;Max_cycle;Signal;HPM_P1;HPM_P2
2022/08/28 00:00:47;;;;;;;3.40;2.80;;;;;;;;;;5073131;28;20229;-85
2022/08/28 00:03:15;;;;;;;5.00;2.92;;;;;;;;;;5073881;28;20221;-85
2022/08/28 00:08:47;;;;;;;3.75;2.95;;;;;;;;;;5073763;28;20194;-85
2022/08/28 00:11:14;;;;;;;3.83;3.03;;;;;;;;;;5072783;28;20244;-85
2022/08/28 00:13:41;;;;;;;4.55;3.20;;;;;;;;;;5073403;28;20178;-85
2022/08/28 00:16:08;;;;;;;4.80;2.92;;;;;;;;;;5073616;28;20241;-85
2022/08/28 00:18:35;;;;;;;2.88;2.63;;;;;;;;;;5073382;28;20689;-85
2022/08/28 00:21:02;;;;;;;3.63;2.90;;;;;;;;;;5072776;28;20231;-85
2022/08/28 00:23:31;;;;;;;3.90;3.00;;;;;;;;;;5073488;28;20225;-85
2022/08/28 00:26:00;;;;;;;4.03;2.95;;;;;;;;;;5072687;28;20237;-85
2022/08/28 00:28:26;;;;;;;4.90;3.25;;;;;;;;;;5073330;28;20201;-85
2022/08/28 00:30:54;;;;;;;4.75;3.35;;;;;;;;;;5072426;28;20233;-84
2022/08/28 00:33:23;;;;;;;4.57;3.25;;;;;;;;;;5073526;28;20661;-84
2022/08/28 00:35:50;;;;;;;6.65;2.97;;;;;;;;;;5072838;28;20608;-85
2022/08/28 00:38:18;;;;;;;5.60;3.63;;;;;;;;;;5073055;28;20592;-85
2022/08/28 00:40:46;;;;;;;5.57;3.20;;;;;;;;;;5072673;28;20257;-84
2022/08/28 00:43:22;;;;;;;4.45;3.38;;;;;;;;;;5072851;28;20228;-85
2022/08/28 00:45:49;;;;;;;7.35;3.40;;;;;;;;;;5072645;28;20241;-85
2022/08/28 00:48:16;;;;;;;3.85;3.30;;;;;;;;;;5073196;28;20201;-85
2022/08/28 00:53:28;;;;;;;4.80;3.17;;;;;;;;;;5072803;28;20200;-85
2022/08/28 00:55:55;;;;;;;4.38;3.58;;;;;;;;;;5072617;28;20291;-85
2022/08/28 00:58:23;;;;;;;4.57;3.45;;;;;;;;;;5073012;28;20229;-85
2022/08/28 01:00:50;;;;;;;5.28;3.42;;;;;;;;;;5071956;28;20233;-85
2022/08/28 01:03:17;;;;;;;6.93;3.30;;;;;;;;;;5072871;28;20205;-85
2022/08/28 01:05:46;;;;;;;4.45;3.30;;;;;;;;;;5072752;28;20236;-85
2022/08/28 01:08:13;;;;;;;4.10;3.25;;;;;;;;;;5070847;28;20201;-85
2022/08/28 01:10:43;;;;;;;5.85;3.15;;;;;;;;;;5072764;28;20244;-85
2022/08/28 01:13:10;;;;;;;3.95;2.80;;;;;;;;;;5072792;28;20228;-85
2022/08/28 01:15:41;;;;;;;8.43;3.60;;;;;;;;;;5072680;28;20236;-85
2022/08/28 01:18:32;;;;;;;6.25;3.63;;;;;;;;;;5073177;28;20220;-85
2022/08/28 01:21:01;;;;;;;4.47;3.65;;;;;;;;;;5072247;28;20332;-85
2022/08/28 01:23:34;;;;;;;4.55;3.45;;;;;;;;;;5073106;28;20992;-84
2022/08/28 01:26:03;;;;;;;6.32;3.78;;;;;;;;;;5072581;28;20237;-85
2022/08/28 01:28:30;;;;;;;4.03;3.40;;;;;;;;;;5072949;28;20208;-85
2022/08/28 01:30:57;;;;;;;3.72;3.10;;;;;;;;;;5072335;28;20278;-85
2022/08/28 01:33:24;;;;;;;5.25;3.53;;;;;;;;;;5074612;28;20205;-85
2022/08/28 01:35:51;;;;;;;5.32;3.03;;;;;;;;;;5072477;28;20240;-85
2022/08/28 01:38:18;;;;;;;4.20;2.78;;;;;;;;;;5073007;28;20229;-85
2022/08/28 01:40:47;;;;;;;4.10;3.53;;;;;;;;;;5072014;28;20233;-85
2022/08/28 01:43:17;;;;;;;3.65;2.90;;;;;;;;;;5072577;28;20705;-85
2022/08/28 01:45:45;;;;;;;4.60;3.13;;;;;;;;;;5072112;28;20240;-84
2022/08/28 01:48:12;;;;;;;7.13;2.85;;;;;;;;;;5073079;28;20205;-85
2022/08/28 01:50:39;;;;;;;4.45;3.20;;;;;;;;;;5072045;28;20237;-85
2022/08/28 01:53:07;;;;;;;3.95;2.90;;;;;;;;;;5072296;28;20229;-84
2022/08/28 01:55:35;;;;;;;4.72;3.00;;;;;;;;;;5072186;28;20237;-85
2022/08/28 01:58:03;;;;;;;6.75;3.00;;;;;;;;;;5072874;28;20240;-84
2022/08/28 02:00:32;;;;;;;4.82;3.08;;;;;;;;;;5071891;28;20613;-85
2022/08/28 02:02:59;;;;;;;6.63;3.28;;;;;;;;;;5073497;28;20229;-85
2022/08/28 02:05:29;;;;;;;3.33;2.95;;;;;;;;;;5075667;28;20232;-85
2022/08/28 02:07:56;;;;;;;5.82;3.00;;;;;;;;;;5076613;28;20686;-85
2022/08/28 02:10:24;;;;;;;5.38;3.35;;;;;;;;;;5075639;28;20252;-84
2022/08/28 02:12:51;;;;;;;3.63;2.83;;;;;;;;;;5075979;28;20233;-85
2022/08/28 02:15:19;;;;;;;3.70;3.30;;;;;;;;;;5075940;28;20233;-83
2022/08/28 02:17:47;;;;;;;3.30;2.92;;;;;;;;;;5075984;28;20213;-84
2022/08/28 02:20:14;;;;;;;5.40;3.55;;;;;;;;;;5076109;28;20248;-84
2022/08/28 02:22:43;;;;;;;4.70;3.10;;;;;;;;;;5085842;28;20233;-84
2022/08/28 02:25:10;;;;;;;4.07;2.72;;;;;;;;;;5086497;28;20313;-85
2022/08/28 02:27:38;;;;;;;5.63;3.20;;;;;;;;;;5086587;28;20200;-85
2022/08/28 02:30:06;;;;;;;5.05;3.30;;;;;;;;;;5081947;28;20265;-85
2022/08/28 02:32:33;;;;;;;5.50;2.72;;;;;;;;;;5075222;28;20248;-84
2022/08/28 02:35:02;;;;;;;5.85;3.10;;;;;;;;;;5074657;28;20249;-84
2022/08/28 02:37:29;;;;;;;12.35;3.30;;;;;;;;;;5075813;28;20220;-86
2022/08/28 02:39:57;;;;;;;3.60;3.05;;;;;;;;;;5074572;28;20758;-85
2022/08/28 02:42:25;;;;;;;7.82;3.30;;;;;;;;;;5075338;28;20233;-85
2022/08/28 02:44:52;;;;;;;5.65;3.30;;;;;;;;;;5074878;28;20681;-84
2022/08/28 02:47:19;;;;;;;4.45;3.05;;;;;;;;;;5075448;28;20205;-85
2022/08/28 02:49:46;;;;;;;5.70;3.35;;;;;;;;;;5074933;28;20604;-84
2022/08/28 02:52:15;;;;;;;3.58;3.28;;;;;;;;;;5075066;28;20311;-85
2022/08/28 02:54:42;;;;;;;3.95;3.03;;;;;;;;;;5074646;28;20232;-85
2022/08/28 02:57:09;;;;;;;4.32;3.15;;;;;;;;;;5075058;28;20725;-85
2022/08/28 02:59:36;;;;;;;3.58;2.78;;;;;;;;;;5074510;28;20240;-85
2022/08/28 03:02:05;;;;;;;5.03;3.10;;;;;;;;;;5074911;28;20287;-84
2022/08/28 03:04:32;;;;;;;3.75;2.88;;;;;;;;;;5074438;28;20627;-85
2022/08/28 03:07:00;;;;;;;5.15;3.22;;;;;;;;;;5074689;28;20198;-85
2022/08/28 03:09:28;;;;;;;3.53;2.80;;;;;;;;;;5074441;28;20216;-84
2022/08/28 03:11:55;;;;;;;4.32;2.70;;;;;;;;;;5074603;28;20244;-85
2022/08/28 03:14:22;;;;;;;6.88;2.90;;;;;;;;;;5073671;28;20206;-85
2022/08/28 03:16:50;;;;;;;3.95;2.72;;;;;;;;;;5075083;28;20213;-84
2022/08/28 03:19:17;;;;;;;4.55;2.90;;;;;;;;;;5075530;28;20255;-85
2022/08/28 03:21:44;;;;;;;3.40;3.00;;;;;;;;;;5074327;28;20225;-84
2022/08/28 03:24:10;;;;;;;5.30;3.10;;;;;;;;;;5074589;28;20209;-85
2022/08/28 03:26:38;;;;;;;3.17;2.88;;;;;;;;;;5074352;28;20646;-85
2022/08/28 03:29:05;;;;;;;4.22;2.75;;;;;;;;;;5074191;28;20205;-85
2022/08/28 03:31:34;;;;;;;4.72;3.08;;;;;;;;;;5073692;28;20233;-84
2022/08/28 03:34:01;;;;;;;4.15;3.40;;;;;;;;;;5074557;28;20204;-84
2022/08/28 03:36:30;;;;;;;5.85;3.10;;;;;;;;;;5073721;28;20256;-85
2022/08/28 03:38:59;;;;;;;8.13;3.08;;;;;;;;;;5074399;28;20316;-85
2022/08/28 03:41:28;;;;;;;3.72;2.75;;;;;;;;;;5073309;28;20597;-85
2022/08/28 03:43:57;;;;;;;4.60;3.00;;;;;;;;;;5074592;28;20765;-85
2022/08/28 03:46:24;;;;;;;4.53;2.80;;;;;;;;;;5073662;28;20236;-85
2022/08/28 03:48:52;;;;;;;5.28;3.25;;;;;;;;;;5074231;28;20210;-85
2022/08/28 03:51:20;;;;;;;3.83;3.35;;;;;;;;;;5073390;28;20299;-85
2022/08/28 03:53:48;;;;;;;5.68;2.88;;;;;;;;;;5074209;28;20207;-85
2022/08/28 03:56:16;;;;;;;3.53;2.75;;;;;;;;;;5073545;28;20654;-85
2022/08/28 03:58:43;;;;;;;5.20;2.78;;;;;;;;;;5074131;28;20205;-85
2022/08/28 04:01:12;;;;;;;5.32;3.47;;;;;;;;;;5073796;28;20731;-85
2022/08/28 04:03:39;;;;;;;3.42;3.00;;;;;;;;;;5074112;28;20664;-85
2022/08/28 04:06:06;;;;;;;5.32;3.03;;;;;;;;;;5073373;28;20241;-85
2022/08/28 04:08:33;;;;;;;5.00;2.80;;;;;;;;;;5073679;28;20201;-85
2022/08/28 04:11:00;;;;;;;5.60;3.17;;;;;;;;;;5072940;28;20229;-85
2022/08/28 04:13:28;;;;;;;3.22;2.50;;;;;;;;;;5074301;28;20579;-85
2022/08/28 04:15:59;;;;;;;6.40;2.67;;;;;;;;;;5065954;22;20317;-84
2022/08/28 04:18:27;;;;;;;5.72;2.80;;;;;;;;;;5032501;28;20221;-84
2022/08/28 04:20:58;;;;;;;5.00;3.08;;;;;;;;;;5031724;28;20249;-84
2022/08/28 04:23:25;;;;;;;3.60;3.03;;;;;;;;;;5032261;28;20203;-84
2022/08/28 04:25:52;;;;;;;6.63;3.03;;;;;;;;;;5031627;28;20238;-85
2022/08/28 04:28:19;;;;;;;5.55;2.58;;;;;;;;;;5032326;28;20297;-85
2022/08/28 04:30:46;;;;;;;8.15;2.80;;;;;;;;;;5031709;28;20234;-83
2022/08/28 04:33:13;;;;;;;4.13;2.70;;;;;;;;;;5032075;28;20206;-85
2022/08/28 04:35:42;;;;;;;5.80;2.90;;;;;;;;;;5032311;28;20253;-83
2022/08/28 04:38:09;;;;;;;3.13;2.83;;;;;;;;;;5056363;28;20190;-83
2022/08/28 04:40:39;;;;;;;5.05;2.92;;;;;;;;;;5057129;28;20230;-82
2022/08/28 04:43:06;;;;;;;5.65;3.10;;;;;;;;;;5053884;28;20210;-84
2022/08/28 04:45:33;;;;;;;2.53;2.33;;;;;;;;;;5031355;28;20245;-84
2022/08/28 04:48:00;;;;;;;3.92;2.58;;;;;;;;;;5032014;28;20213;-84
2022/08/28 04:50:27;;;;;;;3.97;2.90;;;;;;;;;;5031307;28;20729;-84
2022/08/28 04:52:55;;;;;;;7.35;3.28;;;;;;;;;;5034571;28;20202;-84
2022/08/28 04:55:23;;;;;;;5.45;2.80;;;;;;;;;;5011563;28;20243;-82
2022/08/28 04:57:50;;;;;;;5.38;2.95;;;;;;;;;;5012219;28;20302;-85
2022/08/28 05:00:17;;;;;;;9.25;2.72;;;;;;;;;;5011725;28;20235;-84
2022/08/28 05:02:44;;;;;;;5.25;2.78;;;;;;;;;;5012340;28;20261;-85
2022/08/28 05:05:12;;;;;;;4.65;2.63;;;;;;;;;;5013106;28;20246;-84
2022/08/28 05:07:39;;;;;;;5.55;2.60;;;;;;;;;;5013239;28;20527;-85
2022/08/28 05:10:07;;;;;;;3.85;2.50;;;;;;;;;;5012448;28;20235;-84
2022/08/28 05:12:35;;;;;;;8.35;2.55;;;;;;;;;;5012421;28;20212;-85
2022/08/28 05:15:02;;;;;;;5.43;2.92;;;;;;;;;;5011654;28;20243;-84
2022/08/28 05:17:29;;;;;;;2.80;2.40;;;;;;;;;;5012075;28;20208;-84
2022/08/28 05:19:56;;;;;;;4.88;2.63;;;;;;;;;;5028108;28;20242;-83
2022/08/28 05:22:23;;;;;;;6.07;2.92;;;;;;;;;;5031545;28;20207;-84
2022/08/28 05:24:50;;;;;;;2.88;2.60;;;;;;;;;;5031679;28;20241;-83
2022/08/28 05:27:19;;;;;;;4.95;2.80;;;;;;;;;;5031766;28;20217;-84
2022/08/28 05:29:46;;;;;;;6.15;2.58;;;;;;;;;;5030981;28;20292;-83
2022/08/28 05:32:13;;;;;;;5.68;2.85;;;;;;;;;;5031826;28;20210;-83
2022/08/28 05:34:40;;;;;;;6.55;2.95;;;;;;;;;;5032004;28;20242;-83
2022/08/28 05:37:08;;;;;;;7.60;2.90;;;;;;;;;;5032098;28;20210;-84
2022/08/28 05:39:35;;;;;;;10.50;2.90;;;;;;;;;;5035255;28;20241;-84
2022/08/28 05:42:02;;;;;;;5.13;2.70;;;;;;;;;;5036068;28;20214;-83
2022/08/28 05:44:31;;;;;;;5.55;2.70;;;;;;;;;;5034990;28;20284;-83
2022/08/28 05:46:58;;;;;;;6.50;2.78;;;;;;;;;;5035803;28;20214;-84
2022/08/28 05:49:27;;;;;;;5.75;2.70;;;;;;;;;;5035094;28;20206;-83
2022/08/28 05:51:54;;;;;;;5.05;2.50;;;;;;;;;;5035512;28;20297;-83
2022/08/28 05:54:21;;;;;;;2.92;2.53;;;;;;;;;;5034964;28;20306;-82
2022/08/28 05:56:48;;;;;;;5.35;2.60;;;;;;;;;;5036402;28;20289;-84
2022/08/28 05:59:16;;;;;;;5.53;2.50;;;;;;;;;;5035106;28;20603;-84
2022/08/28 06:01:45;;;;;;;4.10;2.33;;;;;;;;;;5035439;28;20215;-83
2022/08/28 06:04:13;;;;;;;4.68;2.80;;;;;;;;;;5034511;28;20207;-84
2022/08/28 06:06:41;;;;;;;5.50;2.65;;;;;;;;;;5034980;28;20234;-83
2022/08/28 06:09:09;;;;;;;3.78;2.13;;;;;;;;;;5035270;28;20230;-83
2022/08/28 06:11:37;;;;;;;5.53;2.58;;;;;;;;;;5034900;28;20235;-83
2022/08/28 06:14:08;;;;;;;6.78;2.65;;;;;;;;;;5034650;28;20256;-83
2022/08/28 06:16:36;;;;;;;5.25;2.70;;;;;;;;;;5034174;28;20704;-82
2022/08/28 06:19:05;;;;;;;7.32;2.70;;;;;;;;;;5035426;28;20310;-84
2022/08/28 06:21:32;;;;;;;5.28;2.50;;;;;;;;;;5034287;28;20322;-85
2022/08/28 06:23:59;;;;;;;3.90;2.53;;;;;;;;;;5035571;28;20233;-84
2022/08/28 06:26:27;;;;;;;5.78;2.65;;;;;;;;;;5032719;28;20223;-85
2022/08/28 06:28:54;;;;;;;4.63;2.47;;;;;;;;;;5038797;28;20688;-85
2022/08/28 06:31:21;;;;;;;2.97;2.42;;;;;;;;;;5045984;28;20226;-86
2022/08/28 06:33:48;;;;;;;5.30;3.03;;;;;;;;;;5034554;28;20202;-86
2022/08/28 06:36:17;;;;;;;7.82;2.78;;;;;;;;;;5033981;28;20269;-86
2022/08/28 06:38:45;;;;;;;4.45;2.70;;;;;;;;;;5034891;28;20209;-84
2022/08/28 06:41:14;;;;;;;4.88;2.58;;;;;;;;;;5033867;28;20259;-85
2022/08/28 06:43:41;;;;;;;6.57;2.92;;;;;;;;;;5032165;28;20221;-86
2022/08/28 06:46:08;;;;;;;4.53;2.33;;;;;;;;;;5033481;28;20235;-84
2022/08/28 06:48:35;;;;;;;5.05;2.58;;;;;;;;;;5034414;28;20543;-84
2022/08/28 06:51:06;;;;;;;3.92;2.40;;;;;;;;;;5033418;28;20233;-83
2022/08/28 06:53:34;;;;;;;6.57;2.40;;;;;;;;;;5014129;28;20343;-84
2022/08/28 06:56:05;;;;;;;6.10;2.50;;;;;;;;;;5021421;28;20230;-84
2022/08/28 06:58:32;;;;;;;7.85;2.65;;;;;;;;;;5033938;28;20566;-85
2022/08/28 07:01:04;;;;;;;6.90;2.53;;;;;;;;;;5033010;28;20238;-82
2022/08/28 07:03:31;;;;;;;4.57;2.70;;;;;;;;;;5033179;28;20206;-84
2022/08/28 07:05:59;;;;;;;7.05;3.20;;;;;;;;;;5033216;28;20238;-84
2022/08/28 07:08:27;;;;;;;6.47;2.50;;;;;;;;;;5033638;28;20198;-84
2022/08/28 07:10:57;;;;;;;11.70;3.33;;;;;;;;;;5032669;28;20231;-84
2022/08/28 07:13:24;;;;;;;8.10;2.75;;;;;;;;;;5033214;28;20230;-83
2022/08/28 07:15:51;;;;;;;5.30;2.25;;;;;;;;;;5033158;28;20239;-82
2022/08/28 07:18:19;;;;;;;8.07;2.85;;;;;;;;;;5033552;28;20675;-82
2022/08/28 07:20:55;;;;;;;4.85;2.65;;;;;;;;;;5032679;28;20300;-82
2022/08/28 07:23:22;;;;;;;4.50;2.40;;;;;;;;;;5033682;28;20248;-82
2022/08/28 07:25:49;;;;;;;4.93;2.13;;;;;;;;;;5032652;28;20241;-83
2022/08/28 07:28:17;;;;;;;4.88;2.15;;;;;;;;;;5033298;28;20225;-83
2022/08/28 07:30:45;;;;;;;6.38;2.58;;;;;;;;;;5033027;28;20230;-82
2022/08/28 07:33:13;;;;;;;5.10;2.22;;;;;;;;;;5033451;28;20695;-82
2022/08/28 07:35:43;;;;;;;11.82;2.60;;;;;;;;;;5034598;28;20238;-81
2022/08/28 07:38:10;;;;;;;6.82;2.30;;;;;;;;;;5036520;28;20256;-80
2022/08/28 07:40:38;;;;;;;4.05;2.15;;;;;;;;;;5034579;28;20305;-79
2022/08/28 07:45:58;;;;;;;5.57;2.40;;;;;;;;;;5032132;28;20272;-85
2022/08/28 07:48:25;;;;;;;6.07;2.45;;;;;;;;;;5032435;28;20543;-83
2022/08/28 07:50:52;;;;;;;5.40;1.85;;;;;;;;;;5030914;28;20234;-84
2022/08/28 07:53:19;;;;;;;6.35;2.40;;;;;;;;;;5032700;28;20218;-84
2022/08/28 07:55:46;;;;;;;4.55;2.08;;;;;;;;;;5038860;28;20237;-83
2022/08/28 07:58:13;;;;;;;6.45;2.40;;;;;;;;;;5039860;28;20203;-83
2022/08/28 08:00:41;;;;;;;4.70;2.08;;;;;;;;;;5033806;28;20233;-83
2022/08/28 08:03:09;;;;;;;4.53;2.20;;;;;;;;;;5037824;28;20269;-84
2022/08/28 08:05:37;;;;;;;6.88;1.95;;;;;;;;;;5038684;28;20264;-82
2022/08/28 08:08:04;;;;;;;10.38;2.63;;;;;;;;;;5038832;28;20246;-83
2022/08/28 08:10:31;;;;;;;5.35;2.33;;;;;;;;;;5031234;28;20737;-82
2022/08/28 08:12:58;;;;;;;4.00;2.08;;;;;;;;;;5032454;28;20206;-83
2022/08/28 08:15:25;;;;;;;5.47;2.20;;;;;;;;;;5031273;28;20296;-81
2022/08/28 08:17:52;;;;;;;5.97;2.03;;;;;;;;;;5031986;28;20199;-84
2022/08/28 08:20:21;;;;;;;6.93;2.25;;;;;;;;;;5024791;28;20230;-83
2022/08/28 08:22:48;;;;;;;5.40;2.08;;;;;;;;;;5013215;28;20207;-84
2022/08/28 08:25:15;;;;;;;5.63;1.98;;;;;;;;;;5030883;28;20317;-83
2022/08/28 08:27:42;;;;;;;7.38;2.58;;;;;;;;;;5032429;28;20207;-85
2022/08/28 08:30:10;;;;;;;4.55;2.17;;;;;;;;;;5034140;28;20231;-83
2022/08/28 08:32:39;;;;;;;5.03;1.90;;;;;;;;;;5036262;28;20285;-84
2022/08/28 08:35:06;;;;;;;5.55;2.38;;;;;;;;;;5036333;28;20242;-84
2022/08/28 08:37:35;;;;;;;4.20;2.28;;;;;;;;;;5033413;28;20721;-84
2022/08/28 08:40:04;;;;;;;8.30;2.00;;;;;;;;;;5033843;28;20292;-85
2022/08/28 08:42:33;;;;;;;7.35;2.00;;;;;;;;;;5035626;28;20199;-85
2022/08/28 08:45:03;;;;;;;7.35;2.35;;;;;;;;;;5031943;28;20313;-85
2022/08/28 08:47:33;;;;;;;4.88;2.20;;;;;;;;;;5032459;28;20194;-84
2022/08/28 08:50:01;;;;;;;10.60;2.78;;;;;;;;;;5031942;28;20743;-85
2022/08/28 08:52:32;;;;;;;5.60;2.58;;;;;;;;;;5032622;28;20206;-86
2022/08/28 08:55:05;;;;;;;4.78;2.47;;;;;;;;;;5032289;28;20262;-86
2022/08/28 08:57:33;;;;;;;3.90;2.17;;;;;;;;;;5032808;28;20559;-85
2022/08/28 09:00:01;;;;;;;5.53;2.30;;;;;;;;;;5031754;28;20234;-86
2022/08/28 09:02:31;;;;;;;4.07;2.20;;;;;;;;;;5031817;28;20218;-86
2022/08/28 09:05:02;;;;;;;3.78;2.50;;;;;;;;;;5031667;28;20242;-87
2022/08/28 09:07:36;;;;;;;7.32;2.63;;;;;;;;;;5032594;28;20625;-87
2022/08/28 09:10:06;;;;;;;6.57;2.47;;;;;;;;;;5031672;28;20657;-86
2022/08/28 09:12:42;;;;;;;3.00;2.08;;;;;;;;;;5032760;28;20210;-87
2022/08/28 09:15:13;;;;;;;5.03;2.42;;;;;;;;;;5036166;28;20717;-87
2022/08/28 09:17:46;;;;;;;3.95;2.50;;;;;;;;;;5039438;28;20206;-85
2022/08/28 09:20:16;;;;;;;3.22;2.20;;;;;;;;;;5052909;28;20234;-86
2022/08/28 09:22:43;;;;;;;3.53;2.25;;;;;;;;;;5048988;28;20210;-87
2022/08/28 09:25:13;;;;;;;5.05;2.47;;;;;;;;;;5048460;28;20237;-86
2022/08/28 09:27:45;;;;;;;3.20;2.38;;;;;;;;;;5037163;28;20458;-87
2022/08/28 09:30:13;;;;;;;4.93;2.42;;;;;;;;;;5055797;28;20257;-87
2022/08/28 09:32:42;;;;;;;5.93;2.40;;;;;;;;;;5054993;28;20549;-88
2022/08/28 09:35:13;;;;;;;4.68;2.20;;;;;;;;;;5055370;28;20248;-87
2022/08/28 09:37:41;;;;;;;5.50;2.30;;;;;;;;;;5048063;28;20209;-87
2022/08/28 09:40:17;;;;;;;3.08;2.35;;;;;;;;;;5035155;28;20235;-87
2022/08/28 09:45:42;;;;;;;3.15;2.25;;;;;;;;;;5035911;28;20245;-86
2022/08/28 09:48:18;;;;;;;4.45;2.22;;;;;;;;;;5048769;28;20202;-86
2022/08/28 09:50:56;;;;;;;5.63;2.55;;;;;;;;;;5038500;28;20237;-87
2022/08/28 09:53:23;;;;;;;5.20;2.05;;;;;;;;;;5036402;28;20191;-87
2022/08/28 09:55:55;;;;;;;7.40;2.63;;;;;;;;;;5035261;28;20234;-87
2022/08/28 09:58:23;;;;;;;8.32;2.53;;;;;;;;;;5036472;28;20206;-86
2022/08/28 10:00:53;;;;;;;3.78;2.47;;;;;;;;;;5035539;28;20659;-87
2022/08/28 10:03:22;;;;;;;3.03;2.30;;;;;;;;;;5042731;28;20208;-87
2022/08/28 10:05:53;;;;;;;4.00;2.13;;;;;;;;;;5055299;28;20241;-87
2022/08/28 10:08:25;;;;;;;5.07;2.38;;;;;;;;;;5049009;28;20226;-86
2022/08/28 10:10:56;;;;;;;3.90;2.53;;;;;;;;;;5035293;28;20254;-85
2022/08/28 10:13:28;;;;;;;6.10;2.60;;;;;;;;;;5035539;28;20210;-87
2022/08/28 10:16:03;;;;;;;2.80;2.35;;;;;;;;;;5036112;28;20246;-87
2022/08/28 10:18:34;;;;;;;4.00;2.10;;;;;;;;;;5034979;28;20687;-86
2022/08/28 10:21:09;;;;;;;5.03;2.17;;;;;;;;;;5034594;28;20324;-87
2022/08/28 10:23:43;;;;;;;6.30;2.60;;;;;;;;;;5034879;28;20218;-87
2022/08/28 10:26:19;;;;;;;4.32;2.20;;;;;;;;;;5034682;28;20246;-87
2022/08/28 10:28:55;;;;;;;3.83;2.20;;;;;;;;;;5039730;28;20183;-85
2022/08/28 10:31:25;;;;;;;2.90;2.10;;;;;;;;;;5045402;28;20582;-87
2022/08/28 10:33:55;;;;;;;3.50;1.98;;;;;;;;;;5038708;28;20714;-86
2022/08/28 10:36:25;;;;;;;2.67;1.83;;;;;;;;;;5035789;28;20593;-86
2022/08/28 10:38:58;;;;;;;3.97;2.08;;;;;;;;;;5035531;28;20325;-86
2022/08/28 10:41:30;;;;;;;3.75;2.25;;;;;;;;;;5034496;28;20234;-87
2022/08/28 10:44:00;;;;;;;3.53;2.20;;;;;;;;;;5066841;23;20708;-85
2022/08/28 10:46:30;;;;;;;5.03;2.28;;;;;;;;;;5082448;28;20231;-85
2022/08/28 10:49:00;;;;;;;4.35;2.45;;;;;;;;;;5078418;28;20401;-84
2022/08/28 10:51:32;;;;;;;4.22;2.40;;;;;;;;;;5094366;28;20224;-84
2022/08/28 10:54:02;;;;;;;4.65;1.98;;;;;;;;;;5095312;28;20229;-85
2022/08/28 10:56:34;;;;;;;6.72;2.20;;;;;;;;;;5093831;28;20256;-84
2022/08/28 10:59:01;;;;;;;4.22;2.40;;;;;;;;;;5095507;28;20196;-82
2022/08/28 11:01:29;;;;;;;5.50;2.53;;;;;;;;;;5084935;28;20229;-84
2022/08/28 11:03:57;;;;;;;5.75;2.40;;;;;;;;;;5074426;28;20225;-84
2022/08/28 11:06:27;;;;;;;5.30;2.00;;;;;;;;;;5073727;28;20244;-84
2022/08/28 11:08:56;;;;;;;6.93;2.20;;;;;;;;;;5074523;28;20726;-85
2022/08/28 11:11:44;;;;;;;7.28;2.05;;;;;;;;;;5074723;28;20238;-86
2022/08/28 11:14:23;;;;;;;3.78;2.10;;;;;;;;;;5069417;28;20246;-87
2022/08/28 11:16:51;;;;;;;4.45;1.98;;;;;;;;;;5056953;28;20640;-86
2022/08/28 11:19:23;;;;;;;5.70;2.40;;;;;;;;;;5054970;28;20552;-85
2022/08/28 11:21:52;;;;;;;3.95;2.00;;;;;;;;;;5053637;28;20213;-85
2022/08/28 11:24:32;;;;;;;5.18;2.13;;;;;;;;;;5062575;28;20221;-85
2022/08/28 11:27:04;;;;;;;3.53;2.13;;;;;;;;;;5074376;28;20188;-86
2022/08/28 11:30:05;;;;;;;4.95;2.50;;;;;;;;;;5076151;28;20237;-85
2022/08/28 11:35:40;;;;;;;4.55;2.15;;;;;;;;;;5088399;27;20561;-83
2022/08/28 11:38:07;;;;;;;5.18;2.00;;;;;;;;;;5062890;28;20670;-85
2022/08/28 11:40:51;;;;;;;3.35;2.28;;;;;;;;;;5069818;28;20241;-85
2022/08/28 11:43:36;;;;;;;4.10;2.40;;;;;;;;;;5069766;28;20208;-83
2022/08/28 11:46:07;;;;;;;3.92;2.33;;;;;;;;;;5057751;28;20233;-82
2022/08/28 11:48:50;;;;;;;4.45;2.50;;;;;;;;;;5066780;28;20212;-84
2022/08/28 11:51:36;;;;;;;4.80;2.20;;;;;;;;;;5005399;28;20247;-83
2022/08/28 11:54:09;;;;;;;3.95;2.10;;;;;;;;;;4973798;28;20235;-86
2022/08/28 11:56:41;;;;;;;6.15;2.33;;;;;;;;;;4966473;28;20267;-84
2022/08/28 11:59:14;;;;;;;3.92;2.22;;;;;;;;;;4966484;28;20201;-83
2022/08/28 12:01:41;;;;;;;4.72;2.35;;;;;;;;;;4949767;28;20234;-83
2022/08/28 12:04:11;;;;;;;3.65;2.30;;;;;;;;;;4954342;28;20228;-84
2022/08/28 12:06:53;;;;;;;5.05;2.38;;;;;;;;;;4946331;28;20237;-83
2022/08/28 12:09:37;;;;;;;4.32;2.10;;;;;;;;;;4948079;28;20206;-84
2022/08/28 12:12:05;;;;;;;4.45;2.30;;;;;;;;;;4967165;28;20236;-84
2022/08/28 12:15:03;;;;;;;3.83;2.03;;;;;;;;;;4966633;28;20647;-84
2022/08/28 12:18:04;;;;;;;4.97;2.33;;;;;;;;;;4967456;28;20197;-84
2022/08/28 12:20:34;;;;;;;4.63;2.40;;;;;;;;;;4978942;28;20239;-84
2022/08/28 12:23:05;;;;;;;3.35;2.20;;;;;;;;;;4966538;28;20201;-85
2022/08/28 12:25:34;;;;;;;2.20;1.88;;;;;;;;;;4967034;28;20241;-85
2022/08/28 12:28:05;;;;;;;3.78;2.70;;;;;;;;;;4967558;28;20565;-85
2022/08/28 12:30:34;;;;;;;4.30;2.35;;;;;;;;;;4966717;28;20236;-85
2022/08/28 12:33:08;;;;;;;2.95;2.45;;;;;;;;;;4967424;28;20196;-85
2022/08/28 12:35:36;;;;;;;4.22;2.47;;;;;;;;;;4967032;28;20245;-87
2022/08/28 12:38:06;;;;;;;3.58;2.33;;;;;;;;;;4966424;28;20623;-89
2022/08/28 12:40:46;;;;;;;4.60;2.85;;;;;;;;;;4966287;28;20240;-85
2022/08/28 12:43:13;;;;;;;2.92;2.33;;;;;;;;;;4967134;28;20278;-84
2022/08/28 12:45:43;;;;;;;3.85;2.10;;;;;;;;;;4960162;28;20237;-87
2022/08/28 12:48:16;;;;;;;4.20;2.00;;;;;;;;;;4954050;28;20193;-85
2022/08/28 12:50:43;;;;;;;3.22;2.10;;;;;;;;;;4953356;28;20291;-86
2022/08/28 12:53:15;;;;;;;2.42;2.15;;;;;;;;;;4954410;29;20776;-87
2022/08/28 12:55:42;;;;;;;4.57;2.17;;;;;;;;;;4953946;28;20387;-86
2022/08/28 12:58:13;;;;;;;4.90;1.95;;;;;;;;;;4954446;29;20213;-86
2022/08/28 13:00:49;;;;;;;3.45;2.17;;;;;;;;;;4953551;28;20237;-86
2022/08/28 13:03:16;;;;;;;3.33;2.10;;;;;;;;;;4954455;29;20197;-87
2022/08/28 13:05:43;;;;;;;4.30;2.67;;;;;;;;;;4954783;28;20244;-86
2022/08/28 13:08:11;;;;;;;4.00;2.30;;;;;;;;;;4958321;28;20217;-86
2022/08/28 13:10:41;;;;;;;3.47;2.00;;;;;;;;;;4956756;28;20234;-89
2022/08/28 13:13:10;;;;;;;4.28;2.50;;;;;;;;;;4954707;29;20202;-87
2022/08/28 13:15:48;;;;;;;4.45;2.30;;;;;;;;;;4953076;28;20272;-88
2022/08/28 13:18:35;;;;;;;4.47;2.55;;;;;;;;;;4956779;28;20847;-87
2022/08/28 13:21:12;;;;;;;4.32;2.25;;;;;;;;;;4955377;28;20259;-86
2022/08/28 13:23:39;;;;;;;4.28;2.17;;;;;;;;;;4955467;28;20225;-85
2022/08/28 13:26:09;;;;;;;3.65;2.55;;;;;;;;;;4954229;28;20248;-85
2022/08/28 13:28:37;;;;;;;3.20;2.25;;;;;;;;;;4953778;29;20221;-85
2022/08/28 13:31:04;;;;;;;3.47;2.40;;;;;;;;;;4953424;28;20245;-86
2022/08/28 13:33:31;;;;;;;6.50;2.30;;;;;;;;;;4955285;28;20392;-86
2022/08/28 13:36:18;;;;;;;4.18;2.25;;;;;;;;;;4953686;28;20696;-86
2022/08/28 13:38:45;;;;;;;3.70;2.20;;;;;;;;;;4953793;29;20554;-86
2022/08/28 13:41:14;;;;;;;3.22;2.25;;;;;;;;;;4953820;28;20614;-85
2022/08/28 13:43:43;;;;;;;2.92;2.40;;;;;;;;;;4955554;29;20233;-85
2022/08/28 13:46:10;;;;;;;3.00;2.05;;;;;;;;;;4950064;28;20237;-85
2022/08/28 13:48:37;;;;;;;8.13;2.22;;;;;;;;;;4954119;29;20217;-86
2022/08/28 13:51:07;;;;;;;2.90;1.80;;;;;;;;;;4952649;28;20320;-85
2022/08/28 13:53:34;;;;;;;3.20;2.08;;;;;;;;;;4953269;28;20701;-86
2022/08/28 13:56:01;;;;;;;4.30;2.80;;;;;;;;;;4953184;28;20659;-86
2022/08/28 13:58:30;;;;;;;5.43;2.40;;;;;;;;;;4951431;28;20589;-86
2022/08/28 14:00:57;;;;;;;3.45;1.98;;;;;;;;;;4952349;28;20744;-85
2022/08/28 14:03:36;;;;;;;1.98;1.80;;;;;;;;;;4952891;28;20677;-85
2022/08/28 14:06:04;;;;;;;3.30;2.38;;;;;;;;;;4952688;28;20244;-85
2022/08/28 14:08:31;;;;;;;3.88;2.70;;;;;;;;;;4952987;29;20580;-85
2022/08/28 14:10:58;;;;;;;3.83;1.85;;;;;;;;;;4952191;28;20612;-86
2022/08/28 14:13:26;;;;;;;3.95;2.33;;;;;;;;;;4952247;28;20202;-85
2022/08/28 14:15:55;;;;;;;3.22;2.10;;;;;;;;;;4952132;28;20245;-84
2022/08/28 14:18:22;;;;;;;3.60;2.15;;;;;;;;;;4953040;29;20220;-85
2022/08/28 14:20:49;;;;;;;4.20;2.00;;;;;;;;;;4952478;28;20237;-86
2022/08/28 14:23:16;;;;;;;4.55;2.30;;;;;;;;;;4953098;29;20300;-85
2022/08/28 14:25:43;;;;;;;2.40;1.88;;;;;;;;;;4952590;28;20249;-85
2022/08/28 14:28:10;;;;;;;3.38;1.95;;;;;;;;;;4952688;29;20693;-87
2022/08/28 14:30:41;;;;;;;3.72;2.40;;;;;;;;;;4952103;28;20241;-86
2022/08/28 14:33:09;;;;;;;2.30;1.80;;;;;;;;;;4952177;29;20205;-85
2022/08/28 14:35:39;;;;;;;5.53;2.30;;;;;;;;;;4951788;28;20249;-86
2022/08/28 14:38:06;;;;;;;4.70;2.50;;;;;;;;;;4954065;28;20262;-85
2022/08/28 14:40:36;;;;;;;2.78;2.35;;;;;;;;;;4952431;28;20705;-85
2022/08/28 14:43:04;;;;;;;5.07;2.60;;;;;;;;;;4952686;29;20543;-85
2022/08/28 14:45:31;;;;;;;2.60;2.00;;;;;;;;;;4951965;28;20245;-86
2022/08/28 14:47:58;;;;;;;4.53;2.50;;;;;;;;;;4953468;29;20248;-86
2022/08/28 14:50:26;;;;;;;2.80;2.10;;;;;;;;;;4951790;28;20241;-85
2022/08/28 14:52:53;;;;;;;4.93;2.28;;;;;;;;;;4951680;29;20201;-86
2022/08/28 14:55:20;;;;;;;2.40;2.03;;;;;;;;;;4951566;28;20248;-84
2022/08/28 14:57:47;;;;;;;3.10;2.20;;;;;;;;;;4952256;29;20255;-86
2022/08/28 15:00:15;;;;;;;3.63;2.10;;;;;;;;;;4952377;28;20244;-85
2022/08/28 15:02:42;;;;;;;3.55;2.28;;;;;;;;;;4952312;29;20204;-85
2022/08/28 15:05:10;;;;;;;2.53;2.20;;;;;;;;;;4951719;28;20616;-85
2022/08/28 15:07:39;;;;;;;4.65;2.30;;;;;;;;;;4952656;29;20218;-85
2022/08/28 15:10:06;;;;;;;4.32;2.38;;;;;;;;;;4952327;28;20229;-85